Time;durP1;ratioP1;P1;durP2;ratioP2;P2;SDS_P1;SDS_P2;PMS_P1;PMS_P2;Temp;Humidity;BMP_temperature;BMP_pressure;BME280_temperature;BME280_humidity;BME280_pressure;Samples;Min_cycle;Max_cycle;Signal;HPM_P1;HPM_P2
2023/07/31 00:01:54;;;;;;;5.57;2.87;;;;;;;27.11;47.19;99352.97;4485013;32;34782;-67
2023/07/31 00:04:22;;;;;;;4.97;3.22;;;;;;;27.10;47.25;99359.56;4485130;32;33751;-65
2023/07/31 00:06:49;;;;;;;5.90;2.90;;;;;;;27.11;47.22;99355.72;4483914;32;34105;-66
2023/07/31 00:09:17;;;;;;;4.47;2.70;;;;;;;27.10;47.24;99359.56;4484813;32;33310;-66
2023/07/31 00:11:45;;;;;;;6.37;3.10;;;;;;;27.10;47.22;99361.47;4485123;32;34797;-66
2023/07/31 00:14:13;;;;;;;7.03;2.83;;;;;;;27.07;47.27;99360.03;4485033;32;33689;-65
2023/07/31 00:16:40;;;;;;;4.50;3.10;;;;;;;27.06;47.26;99350.16;4485042;32;33458;-66
2023/07/31 00:19:09;;;;;;;4.80;2.78;;;;;;;27.06;47.29;99354.81;4485011;32;34938;-66
2023/07/31 00:21:36;;;;;;;5.07;3.10;;;;;;;27.05;47.23;99358.66;4485055;32;33863;-66
2023/07/31 00:24:04;;;;;;;4.93;3.08;;;;;;;27.06;47.20;99358.38;4484603;32;33763;-66
2023/07/31 00:26:32;;;;;;;4.57;2.95;;;;;;;27.05;47.19;99369.63;4484907;32;33466;-66
2023/07/31 00:28:59;;;;;;;6.53;3.00;;;;;;;27.06;47.17;99371.25;4485053;32;33679;-66
2023/07/31 00:31:26;;;;;;;5.43;3.42;;;;;;;27.05;47.10;99373.16;4484902;32;33997;-66
2023/07/31 00:33:55;;;;;;;5.93;3.03;;;;;;;27.05;47.10;99359.47;4484989;32;33965;-66
2023/07/31 00:36:22;;;;;;;4.62;2.92;;;;;;;27.04;47.08;99365.19;4484992;32;33193;-65
2023/07/31 00:38:50;;;;;;;5.28;3.17;;;;;;;27.04;47.13;99373.41;4484673;32;33734;-66
2023/07/31 00:41:17;;;;;;;5.80;3.08;;;;;;;27.02;47.13;99367.38;4483760;32;34793;-66
2023/07/31 00:43:45;;;;;;;4.68;2.90;;;;;;;27.03;47.12;99369.84;4484871;32;33779;-66
2023/07/31 00:46:12;;;;;;;5.60;2.95;;;;;;;27.00;47.14;99375.00;4484689;32;33451;-66
2023/07/31 00:48:40;;;;;;;5.12;3.08;;;;;;;26.98;47.22;99369.00;4483656;32;33809;-66
2023/07/31 00:51:08;;;;;;;4.85;2.90;;;;;;;26.96;47.25;99366.53;4483709;32;34806;-66
2023/07/31 00:53:35;;;;;;;5.70;2.97;;;;;;;26.94;47.28;99382.38;4483387;32;33793;-67
2023/07/31 00:56:03;;;;;;;5.72;3.45;;;;;;;26.92;47.29;99379.91;4485104;32;34214;-66
2023/07/31 00:58:31;;;;;;;6.95;3.72;;;;;;;26.91;47.27;99369.22;4483486;32;34032;-66
2023/07/31 01:00:58;;;;;;;5.50;3.22;;;;;;;26.88;47.38;99375.19;4483442;32;35172;-67
2023/07/31 01:03:26;;;;;;;4.60;2.85;;;;;;;26.85;47.39;99375.72;4484640;32;33882;-66
2023/07/31 01:06:09;;;;;;;4.03;2.60;;;;;;;26.83;47.43;99378.72;4483548;32;33392;-66
2023/07/31 01:09:02;;;;;;;5.37;3.20;;;;;;;26.84;47.34;99377.63;4484680;32;34611;-66
2023/07/31 01:11:30;;;;;;;5.65;3.00;;;;;;;26.84;47.40;99379.53;4484569;32;34773;-66
2023/07/31 01:13:58;;;;;;;5.53;2.92;;;;;;;26.82;47.41;99382.53;4483501;32;33739;-66
2023/07/31 01:16:26;;;;;;;4.32;2.90;;;;;;;26.81;47.45;99382.78;4483434;32;33026;-66
2023/07/31 01:18:54;;;;;;;4.68;2.85;;;;;;;26.80;47.46;99389.34;4484577;32;33736;-66
2023/07/31 01:21:34;;;;;;;6.45;3.33;;;;;;;26.80;47.43;99395.66;4484671;32;34023;-66
2023/07/31 01:24:21;;;;;;;4.82;2.95;;;;;;;26.82;47.40;99395.41;4484520;32;34603;-66
2023/07/31 01:27:21;;;;;;;6.82;2.97;;;;;;;26.82;47.34;99398.16;4483415;32;34231;-67
2023/07/31 01:29:53;;;;;;;4.80;2.80;;;;;;;26.84;47.33;99399.53;4478352;31;33976;-66
2023/07/31 01:32:21;;;;;;;4.30;2.67;;;;;;;26.79;47.32;99388.53;4470523;32;34787;-66
2023/07/31 01:34:48;;;;;;;5.25;2.90;;;;;;;26.79;47.32;99385.78;4470369;32;33684;-66
2023/07/31 01:37:16;;;;;;;5.00;2.85;;;;;;;26.81;47.26;99382.78;4482658;32;32581;-65
2023/07/31 01:39:44;;;;;;;4.22;2.75;;;;;;;26.81;47.22;99371.84;4484292;32;35496;-66
2023/07/31 01:42:11;;;;;;;4.68;2.80;;;;;;;26.80;47.20;99373.75;4484503;32;33892;-66
2023/07/31 01:44:39;;;;;;;4.80;2.87;;;;;;;26.81;47.12;99372.66;4484468;32;33684;-66
2023/07/31 01:47:06;;;;;;;3.70;2.50;;;;;;;26.81;47.09;99361.72;4484309;32;34299;-66
2023/07/31 01:49:34;;;;;;;4.20;2.87;;;;;;;26.82;47.07;99368.03;4484394;32;33807;-65
2023/07/31 01:52:02;;;;;;;4.65;2.83;;;;;;;26.82;47.04;99366.13;4484645;32;34891;-66
2023/07/31 01:54:30;;;;;;;5.25;3.20;;;;;;;26.82;47.02;99355.16;4484255;32;34040;-66
2023/07/31 01:56:57;;;;;;;5.05;2.90;;;;;;;26.82;46.92;99354.34;4484379;32;33290;-66
2023/07/31 01:59:25;;;;;;;4.85;2.80;;;;;;;26.77;46.94;99357.88;4484351;32;33655;-67
2023/07/31 02:01:52;;;;;;;7.78;2.62;;;;;;;26.77;46.90;99357.03;4484164;32;34872;-66
2023/07/31 02:04:21;;;;;;;4.50;3.03;;;;;;;26.78;46.89;99364.97;4484378;32;33690;-66
2023/07/31 02:06:49;;;;;;;6.47;3.08;;;;;;;26.78;46.78;99359.50;4484198;32;34763;-67
2023/07/31 02:09:16;;;;;;;5.53;3.10;;;;;;;26.75;46.65;99364.66;4484042;32;34910;-67
2023/07/31 02:11:44;;;;;;;6.53;2.75;;;;;;;26.73;46.53;99364.94;4484245;32;34035;-66
2023/07/31 02:14:12;;;;;;;4.87;2.80;;;;;;;26.73;46.47;99367.66;4484194;32;34688;-66
2023/07/31 02:16:39;;;;;;;5.62;2.53;;;;;;;26.74;46.42;99360.28;4484012;32;33419;-66
2023/07/31 02:19:07;;;;;;;4.07;2.40;;;;;;;26.73;46.40;99364.12;4483996;32;33528;-66
2023/07/31 02:21:35;;;;;;;4.72;2.35;;;;;;;26.71;46.34;99367.91;4484170;32;34731;-66
2023/07/31 02:24:03;;;;;;;5.20;2.40;;;;;;;26.71;46.29;99367.91;4483961;32;33846;-66
2023/07/31 02:26:30;;;;;;;3.87;2.65;;;;;;;26.71;46.21;99373.38;4482899;32;34033;-66
2023/07/31 02:28:58;;;;;;;3.80;2.42;;;;;;;26.71;46.10;99367.09;4483983;32;34183;-67
2023/07/31 02:31:25;;;;;;;4.10;2.60;;;;;;;26.66;46.06;99375.25;4483674;32;34024;-66
2023/07/31 02:33:53;;;;;;;5.43;2.47;;;;;;;26.63;46.05;99378.53;4483942;32;33787;-67
2023/07/31 02:36:21;;;;;;;4.28;2.08;;;;;;;26.61;46.09;99388.88;4483970;32;34302;-67
2023/07/31 02:38:49;;;;;;;3.37;2.12;;;;;;;26.59;46.08;99386.41;4483679;32;33913;-67
2023/07/31 02:41:16;;;;;;;5.65;2.20;;;;;;;26.59;46.06;99378.22;4483735;32;34103;-67
2023/07/31 02:43:44;;;;;;;3.65;1.87;;;;;;;26.58;46.11;99379.28;4483681;31;33821;-66
2023/07/31 02:46:11;;;;;;;4.95;2.62;;;;;;;26.59;46.06;99388.34;4483590;32;33372;-66
2023/07/31 02:48:40;;;;;;;3.55;2.30;;;;;;;26.59;46.06;99396.53;4485999;31;34085;-67
2023/07/31 02:51:08;;;;;;;4.62;2.70;;;;;;;26.59;45.95;99397.38;4485742;31;34026;-68
2023/07/31 02:53:35;;;;;;;4.62;2.45;;;;;;;26.58;45.91;99403.06;4485515;32;34425;-68
2023/07/31 02:56:03;;;;;;;4.20;1.87;;;;;;;26.56;45.87;99406.06;4485986;32;33324;-66
2023/07/31 02:58:31;;;;;;;3.50;2.15;;;;;;;26.56;45.85;99400.59;4485666;32;34659;-67
2023/07/31 03:00:59;;;;;;;6.90;1.90;;;;;;;26.56;45.84;99403.34;4485340;32;34491;-68
2023/07/31 03:03:26;;;;;;;4.18;2.33;;;;;;;26.55;45.78;99401.69;4484486;32;33946;-67
2023/07/31 03:05:55;;;;;;;3.95;2.08;;;;;;;26.55;45.78;99404.44;4485826;32;33437;-67
2023/07/31 03:08:24;;;;;;;3.07;1.97;;;;;;;26.55;45.79;99411.81;4485541;32;33952;-66
2023/07/31 03:10:52;;;;;;;3.70;2.10;;;;;;;26.56;45.76;99416.19;4492804;31;34028;-68
2023/07/31 03:13:19;;;;;;;5.22;2.03;;;;;;;26.54;45.75;99415.63;4500945;31;33764;-63
2023/07/31 03:15:47;;;;;;;3.80;2.12;;;;;;;26.53;45.74;99423.00;4501376;31;33568;-68
2023/07/31 03:18:15;;;;;;;4.53;2.15;;;;;;;26.54;45.71;99421.13;4501210;31;34742;-65
2023/07/31 03:20:43;;;;;;;4.93;1.90;;;;;;;26.53;45.65;99423.00;4501031;31;34011;-63
2023/07/31 03:23:11;;;;;;;4.93;2.13;;;;;;;26.52;45.64;99424.09;4500039;31;33771;-67
2023/07/31 03:25:41;;;;;;;4.57;2.05;;;;;;;26.54;45.45;99426.59;4501349;31;34125;-64
2023/07/31 03:28:09;;;;;;;3.83;2.10;;;;;;;26.52;45.42;99420.53;4501061;31;33768;-68
2023/07/31 03:30:38;;;;;;;5.75;1.92;;;;;;;26.51;45.43;99430.63;4501070;31;34229;-67
2023/07/31 03:33:05;;;;;;;4.57;2.25;;;;;;;26.50;45.38;99425.44;4501447;31;33792;-67
2023/07/31 03:35:33;;;;;;;5.57;2.45;;;;;;;26.52;45.28;99420.53;4501064;31;33823;-67
2023/07/31 03:38:00;;;;;;;4.72;2.12;;;;;;;26.50;45.28;99428.19;4501233;31;34216;-67
2023/07/31 03:40:28;;;;;;;6.12;2.22;;;;;;;26.50;45.28;99433.66;4496010;31;33869;-63
2023/07/31 03:42:56;;;;;;;3.75;2.05;;;;;;;26.49;45.26;99426.50;4485444;32;33486;-64
2023/07/31 03:45:23;;;;;;;4.97;1.98;;;;;;;26.49;45.26;99429.22;4485344;32;33283;-67
2023/07/31 03:47:51;;;;;;;6.12;2.30;;;;;;;26.49;45.26;99427.34;4484106;32;34071;-66
2023/07/31 03:50:19;;;;;;;6.68;2.42;;;;;;;26.49;45.26;99431.97;4483869;32;34862;-67
2023/07/31 03:52:46;;;;;;;4.05;2.03;;;;;;;26.50;45.26;99439.13;4486020;31;33933;-67
2023/07/31 03:55:14;;;;;;;3.35;1.80;;;;;;;26.48;45.22;99433.06;4485178;32;33304;-64
2023/07/31 03:57:42;;;;;;;5.40;2.10;;;;;;;26.47;45.16;99432.22;4485045;32;33913;-64
2023/07/31 04:00:10;;;;;;;4.65;2.28;;;;;;;26.46;45.10;99433.31;4482503;31;33629;-63
2023/07/31 04:02:38;;;;;;;5.40;2.00;;;;;;;26.47;45.08;99429.50;4483531;32;33698;-65
2023/07/31 04:05:07;;;;;;;2.95;1.70;;;;;;;26.48;45.07;99431.16;4484207;32;33225;-62
2023/07/31 04:07:35;;;;;;;3.30;1.90;;;;;;;26.46;45.12;99433.31;4484988;32;33726;-62
2023/07/31 04:10:03;;;;;;;4.10;1.70;;;;;;;26.47;45.07;99432.22;4485396;32;33878;-62
2023/07/31 04:12:31;;;;;;;5.28;1.98;;;;;;;26.48;45.07;99433.06;4484998;32;33777;-62
2023/07/31 04:14:58;;;;;;;5.87;2.35;;;;;;;26.48;45.06;99428.41;4485192;32;33145;-62
2023/07/31 04:17:26;;;;;;;3.92;2.00;;;;;;;26.47;45.11;99429.50;4484932;32;33884;-64
2023/07/31 04:19:53;;;;;;;4.78;2.08;;;;;;;26.48;45.06;99431.16;4484841;32;33703;-62
2023/07/31 04:22:21;;;;;;;5.00;2.10;;;;;;;26.49;45.04;99440.19;4484755;32;33826;-63
2023/07/31 04:24:48;;;;;;;6.28;1.92;;;;;;;26.48;45.01;99436.63;4484973;32;33490;-62
2023/07/31 04:27:16;;;;;;;3.42;2.03;;;;;;;26.49;45.01;99437.44;4485101;32;33863;-63
2023/07/31 04:29:45;;;;;;;3.97;2.20;;;;;;;26.50;45.01;99425.44;4484962;32;34106;-63
2023/07/31 04:32:15;;;;;;;2.67;1.70;;;;;;;26.48;44.99;99427.59;4484810;32;33363;-62
2023/07/31 04:34:43;;;;;;;;;;;;;;;26.48;45.00;99431.16;4485252;32;32920;-62
2023/07/31 04:37:10;;;;;;;4.47;1.83;;;;;;;26.57;44.75;99429.59;4483747;32;33922;-61
2023/07/31 04:39:39;;;;;;;5.30;2.47;;;;;;;26.49;44.91;99432.81;4484862;32;34730;-63
2023/07/31 04:42:06;;;;;;;5.22;2.15;;;;;;;26.48;44.96;99430.31;4485093;32;33757;-62
2023/07/31 04:44:34;;;;;;;3.87;2.12;;;;;;;26.47;44.97;99428.69;4483705;32;33506;-62
2023/07/31 04:47:02;;;;;;;4.00;2.20;;;;;;;26.45;44.99;99426.19;4484719;32;33939;-64
2023/07/31 04:49:30;;;;;;;2.72;1.50;;;;;;;26.44;45.05;99425.38;4484964;32;34002;-63
2023/07/31 04:51:57;;;;;;;5.60;2.40;;;;;;;26.44;45.07;99430.84;4484850;32;34393;-62
2023/07/31 04:54:25;;;;;;;4.25;2.08;;;;;;;26.40;44.83;99428.84;4484656;32;33390;-64
2023/07/31 04:56:54;;;;;;;5.00;2.37;;;;;;;26.37;44.91;99438.38;4484996;32;34228;-64
2023/07/31 04:59:21;;;;;;;3.35;2.05;;;;;;;26.37;44.99;99446.59;4484849;32;34000;-62
2023/07/31 05:01:49;;;;;;;4.53;1.90;;;;;;;26.36;45.02;99428.53;4484542;32;34470;-63
2023/07/31 05:04:17;;;;;;;4.70;2.25;;;;;;;26.36;44.91;99435.91;4484770;32;33563;-62
2023/07/31 05:06:44;;;;;;;3.45;1.87;;;;;;;26.34;44.48;99435.31;4484837;32;34753;-62
2023/07/31 05:09:12;;;;;;;3.42;2.00;;;;;;;26.32;44.15;99426.56;4484757;32;33952;-64
2023/07/31 05:11:42;;;;;;;4.37;1.95;;;;;;;26.30;43.31;99428.69;4483563;32;33057;-65
2023/07/31 05:14:10;;;;;;;4.10;2.15;;;;;;;26.22;42.93;99424.53;4485007;32;33043;-65
2023/07/31 05:16:37;;;;;;;4.82;2.15;;;;;;;26.20;42.46;99423.94;4484632;32;33646;-62
2023/07/31 05:19:06;;;;;;;6.65;1.98;;;;;;;26.16;42.55;99420.91;4484766;32;34785;-67
2023/07/31 05:21:42;;;;;;;3.47;1.87;;;;;;;26.16;42.07;99420.03;4474116;32;33319;-63
2023/07/31 05:24:28;;;;;;;7.85;2.00;;;;;;;26.10;42.01;99432.84;4484868;32;33461;-62
2023/07/31 05:26:56;;;;;;;3.80;1.80;;;;;;;26.07;41.94;99422.41;4484468;32;33813;-63
2023/07/31 05:29:24;;;;;;;4.40;2.00;;;;;;;26.04;41.63;99425.66;4484460;32;34647;-62
2023/07/31 05:31:51;;;;;;;4.62;1.85;;;;;;;26.01;41.64;99426.16;4484466;32;33733;-63
2023/07/31 05:34:19;;;;;;;3.70;1.80;;;;;;;26.01;41.70;99428.06;4484554;32;34144;-64
2023/07/31 05:36:46;;;;;;;7.53;1.62;;;;;;;25.97;41.57;99427.72;4484374;32;34210;-66
2023/07/31 05:39:14;;;;;;;3.22;1.90;;;;;;;25.96;41.35;99434.28;4484453;32;33982;-65
2023/07/31 05:41:41;;;;;;;4.07;1.95;;;;;;;25.96;41.67;99428.81;4484322;32;34478;-64
2023/07/31 05:44:09;;;;;;;5.37;1.80;;;;;;;25.97;41.51;99429.63;4483086;32;32322;-65
2023/07/31 05:46:36;;;;;;;10.25;2.37;;;;;;;25.95;41.36;99438.91;4484445;32;33472;-66
2023/07/31 05:49:05;;;;;;;5.25;2.00;;;;;;;25.96;41.53;99442.47;4484276;32;34928;-64
2023/07/31 05:51:32;;;;;;;3.45;1.60;;;;;;;25.98;41.57;99434.88;4484396;32;33932;-66
2023/07/31 05:54:00;;;;;;;4.32;1.95;;;;;;;25.98;41.54;99431.31;4467196;32;32604;-64
2023/07/31 05:56:28;;;;;;;3.75;1.75;;;;;;;25.99;41.55;99439.25;4468891;32;33934;-65
2023/07/31 05:58:57;;;;;;;4.30;1.83;;;;;;;25.98;41.37;99442.25;4468649;32;33922;-65
2023/07/31 06:01:24;;;;;;;5.18;1.80;;;;;;;25.99;41.41;99436.53;4468516;32;33568;-65
2023/07/31 06:03:52;;;;;;;6.15;1.83;;;;;;;25.99;41.35;99436.53;4468449;32;33108;-64
2023/07/31 06:06:20;;;;;;;2.90;1.70;;;;;;;26.02;41.42;99436.03;4468523;32;34785;-64
2023/07/31 06:08:47;;;;;;;3.30;1.80;;;;;;;26.03;41.30;99440.41;4468570;32;34472;-64
2023/07/31 06:11:15;;;;;;;5.35;1.80;;;;;;;26.03;41.32;99442.31;4468401;32;33208;-65
2023/07/31 06:13:44;;;;;;;4.25;1.87;;;;;;;26.04;41.26;99441.22;4468557;32;33489;-65
2023/07/31 06:16:12;;;;;;;6.65;1.77;;;;;;;26.04;41.30;99446.69;4468556;32;33948;-68
2023/07/31 06:18:40;;;;;;;7.10;1.90;;;;;;;26.06;41.16;99447.25;4467082;32;34864;-63
2023/07/31 06:21:07;;;;;;;6.07;2.12;;;;;;;26.06;41.24;99452.72;4468560;32;33755;-65
2023/07/31 06:23:35;;;;;;;14.02;2.50;;;;;;;26.07;41.35;99447.03;4466739;32;33184;-63
2023/07/31 06:26:03;;;;;;;5.30;2.08;;;;;;;26.08;41.31;99442.38;4481336;32;34665;-63
2023/07/31 06:28:31;;;;;;;4.82;1.92;;;;;;;26.09;41.33;99438.56;4483952;32;34676;-62
2023/07/31 06:30:58;;;;;;;5.05;1.75;;;;;;;26.09;41.17;99444.84;4479876;32;84030;-62
2023/07/31 06:33:26;;;;;;;5.47;2.00;;;;;;;26.10;41.12;99443.78;4482584;32;33297;-61
2023/07/31 06:35:54;;;;;;;3.72;1.90;;;;;;;26.10;41.15;99451.16;4483943;32;33567;-63
2023/07/31 06:38:25;;;;;;;5.43;2.25;;;;;;;26.10;41.10;99449.22;4484144;32;33573;-63
2023/07/31 06:40:53;;;;;;;6.22;2.10;;;;;;;26.11;41.05;99448.19;4483663;32;34190;-61
2023/07/31 06:43:21;;;;;;;4.50;1.87;;;;;;;26.13;41.04;99442.44;4483798;32;33211;-62
2023/07/31 06:45:51;;;;;;;4.70;2.10;;;;;;;26.14;41.06;99447.66;4458772;32;33814;-62
2023/07/31 06:48:19;;;;;;;4.18;1.92;;;;;;;26.14;40.87;99458.59;4481307;32;34541;-65
2023/07/31 06:50:46;;;;;;;2.62;1.70;;;;;;;26.15;40.91;99460.25;4480508;32;34536;-63
2023/07/31 06:53:14;;;;;;;6.78;2.35;;;;;;;26.15;41.00;99457.50;4472965;32;34087;-63
2023/07/31 06:55:42;;;;;;;3.45;1.75;;;;;;;26.16;41.01;99459.19;4471009;32;34286;-62
2023/07/31 06:58:09;;;;;;;6.93;1.92;;;;;;;26.16;41.11;99461.91;4470928;32;33522;-63
2023/07/31 07:00:37;;;;;;;3.25;1.62;;;;;;;26.18;41.12;99470.69;4471623;32;33399;-62
2023/07/31 07:03:05;;;;;;;3.72;1.85;;;;;;;26.19;41.25;99466.03;4469531;32;32474;-63
2023/07/31 07:05:32;;;;;;;3.75;1.83;;;;;;;26.18;41.16;99473.41;4480232;32;33844;-62
2023/07/31 07:08:00;;;;;;;6.37;1.80;;;;;;;26.20;41.17;99468.50;4480134;32;35047;-65
2023/07/31 07:10:27;;;;;;;2.95;1.73;;;;;;;26.20;41.16;99471.25;4480306;32;33475;-64
2023/07/31 07:12:55;;;;;;;4.65;1.75;;;;;;;26.21;41.15;99472.09;4468114;32;33276;-62
2023/07/31 07:15:22;;;;;;;4.78;1.98;;;;;;;26.22;40.92;99476.47;4486236;31;33686;-64
2023/07/31 07:17:52;;;;;;;5.12;1.95;;;;;;;26.24;40.96;99476.22;4499136;31;33514;-62
2023/07/31 07:20:20;;;;;;;8.48;2.20;;;;;;;26.24;40.93;99487.97;4485287;31;33846;-64
2023/07/31 07:22:47;;;;;;;3.35;1.85;;;;;;;26.24;40.78;99478.94;4482887;32;33300;-65
2023/07/31 07:25:15;;;;;;;3.25;1.75;;;;;;;26.24;40.59;99477.03;4483263;32;33947;-63
2023/07/31 07:27:43;;;;;;;6.15;2.40;;;;;;;26.24;40.59;99466.09;4478102;32;33678;-64
2023/07/31 07:30:10;;;;;;;4.43;1.83;;;;;;;26.25;40.33;99467.75;4481653;32;33464;-64
2023/07/31 07:32:38;;;;;;;3.37;1.85;;;;;;;26.26;40.32;99474.06;4467354;32;33340;-62
2023/07/31 07:35:06;;;;;;;3.90;1.83;;;;;;;26.28;40.13;99471.91;4468555;32;33752;-64
2023/07/31 07:37:34;;;;;;;6.10;1.92;;;;;;;26.27;39.93;99475.72;4469678;32;34811;-63
2023/07/31 07:40:02;;;;;;;5.57;1.98;;;;;;;26.27;40.00;99473.81;4469615;32;34079;-63
2023/07/31 07:42:29;;;;;;;3.47;1.70;;;;;;;26.29;39.84;99482.56;4481375;32;34135;-63
2023/07/31 07:44:57;;;;;;;6.32;1.92;;;;;;;26.28;39.99;99471.91;4475938;32;33917;-63
2023/07/31 07:47:24;;;;;;;5.68;2.00;;;;;;;26.29;39.99;99477.09;4469468;32;33526;-65
2023/07/31 07:49:55;;;;;;;4.43;1.90;;;;;;;26.30;40.08;99480.66;4472829;32;33401;-65
2023/07/31 07:52:22;;;;;;;5.20;2.33;;;;;;;26.31;40.13;99476.88;4479239;32;34154;-65
2023/07/31 07:54:50;;;;;;;6.28;2.30;;;;;;;26.30;39.90;99480.66;4485294;32;33902;-64
2023/07/31 07:57:18;;;;;;;4.05;2.08;;;;;;;26.31;39.97;99476.88;4480636;32;33724;-65
2023/07/31 07:59:45;;;;;;;4.07;2.00;;;;;;;26.31;39.80;99474.13;4485035;32;33762;-64
2023/07/31 08:02:13;;;;;;;4.10;2.17;;;;;;;26.33;39.74;99469.22;4474541;32;33228;-64
2023/07/31 08:04:41;;;;;;;8.20;1.73;;;;;;;26.34;39.61;99473.63;4477986;32;33820;-64
2023/07/31 08:07:11;;;;;;;3.50;1.77;;;;;;;26.34;39.47;99485.38;4484443;32;34663;-63
2023/07/31 08:09:39;;;;;;;7.05;1.83;;;;;;;26.34;39.07;99477.16;4482094;32;34514;-63
2023/07/31 08:12:07;;;;;;;4.90;2.20;;;;;;;26.34;38.80;99485.38;4484369;32;33280;-64
2023/07/31 08:14:35;;;;;;;8.52;2.00;;;;;;;26.36;38.58;99487.88;4483827;32;34636;-65
2023/07/31 08:17:02;;;;;;;6.55;2.12;;;;;;;26.37;38.57;99479.41;4469674;32;33919;-65
2023/07/31 08:19:30;;;;;;;3.60;1.58;;;;;;;26.36;38.41;99483.22;4473204;32;34428;-64
2023/07/31 08:21:58;;;;;;;3.90;2.12;;;;;;;26.38;37.93;99475.59;4471627;32;34208;-64
2023/07/31 08:24:25;;;;;;;5.30;1.90;;;;;;;26.39;37.71;99481.88;4469373;32;34064;-63
2023/07/31 08:26:53;;;;;;;4.57;2.08;;;;;;;26.39;37.77;99490.09;4479817;32;33759;-65
2023/07/31 08:29:21;;;;;;;4.93;1.90;;;;;;;26.39;37.47;99493.69;4484842;32;34026;-64
2023/07/31 08:31:48;;;;;;;6.55;2.10;;;;;;;26.41;37.74;99486.03;4473991;32;33385;-61
2023/07/31 08:34:16;;;;;;;4.22;2.05;;;;;;;26.42;37.67;99484.94;4475110;32;32657;-65
2023/07/31 08:36:43;;;;;;;5.75;2.17;;;;;;;26.43;37.74;99492.09;4484161;32;33706;-65
2023/07/31 08:39:11;;;;;;;5.30;1.95;;;;;;;26.45;37.70;99486.38;4485263;32;33853;-63
2023/07/31 08:41:39;;;;;;;4.28;1.75;;;;;;;26.45;37.50;99491.88;4483338;32;34057;-64
2023/07/31 08:44:09;;;;;;;5.65;1.80;;;;;;;26.44;37.37;99490.22;4484696;32;33303;-64
2023/07/31 08:46:37;;;;;;;4.90;2.17;;;;;;;26.47;37.33;99486.12;4482201;32;33990;-63
2023/07/31 08:49:08;;;;;;;4.45;1.85;;;;;;;26.48;37.36;99483.13;4483556;32;33765;-63
2023/07/31 08:51:36;;;;;;;4.53;1.60;;;;;;;26.49;37.22;99493.00;4466564;32;32979;-63
2023/07/31 08:54:06;;;;;;;5.37;2.05;;;;;;;26.51;37.04;99490.00;4467708;32;34325;-65
2023/07/31 08:56:34;;;;;;;4.32;1.90;;;;;;;26.48;36.83;99483.13;4470806;32;33616;-61
2023/07/31 08:59:02;;;;;;;4.15;1.75;;;;;;;26.50;37.01;99491.09;4480509;31;33646;-65
2023/07/31 09:01:30;;;;;;;6.28;1.92;;;;;;;26.50;36.59;99494.66;4486303;31;33342;-65
2023/07/31 09:03:59;;;;;;;4.07;1.80;;;;;;;26.50;36.21;99489.19;4500190;31;34121;-62
2023/07/31 09:06:29;;;;;;;4.72;1.67;;;;;;;26.51;36.56;99485.38;4470391;31;34721;-63
2023/07/31 09:08:57;;;;;;;4.20;1.77;;;;;;;26.53;36.68;99471.41;4468639;32;33930;-61
2023/07/31 09:11:24;;;;;;;5.18;1.90;;;;;;;26.52;36.46;99470.59;4468204;32;33306;-61
2023/07/31 09:13:52;;;;;;;6.15;1.80;;;;;;;26.54;36.38;99478.56;4465819;32;33561;-64
2023/07/31 09:16:32;;;;;;;6.12;1.92;;;;;;;26.55;36.54;99461.88;4480926;32;33577;-61
2023/07/31 09:19:01;;;;;;;4.68;2.20;;;;;;;26.55;36.70;99461.06;4465901;32;33861;-64
2023/07/31 09:21:29;;;;;;;8.05;2.28;;;;;;;26.57;36.56;99462.44;4467369;32;34408;-63
2023/07/31 09:23:57;;;;;;;3.67;1.48;;;;;;;26.57;36.47;99465.19;4468946;31;33582;-61
2023/07/31 09:26:37;;;;;;;4.95;1.87;;;;;;;26.58;36.71;99461.38;4484250;31;34024;-63
2023/07/31 09:29:07;;;;;;;4.90;2.20;;;;;;;26.59;36.61;99460.28;4498890;31;34132;-62
2023/07/31 09:31:42;;;;;;;5.25;1.92;;;;;;;26.59;36.67;99452.09;4480317;31;33358;-65
2023/07/31 09:34:13;;;;;;;6.15;2.10;;;;;;;26.59;36.35;99457.56;4482858;32;34063;-62
2023/07/31 09:36:48;;;;;;;4.78;1.98;;;;;;;26.58;36.35;99455.91;4484049;32;33486;-63
2023/07/31 09:39:16;;;;;;;6.18;1.95;;;;;;;26.59;36.37;99449.34;4478071;32;33788;-65
2023/07/31 09:41:53;;;;;;;5.80;1.70;;;;;;;26.59;36.50;99446.63;4470042;31;33609;-63
2023/07/31 09:44:21;;;;;;;4.47;1.90;;;;;;;26.62;36.29;99448.00;4478732;31;34028;-62
2023/07/31 09:46:49;;;;;;;4.78;1.70;;;;;;;26.62;36.28;99443.34;4482525;32;35060;-61
2023/07/31 09:49:17;;;;;;;4.28;1.60;;;;;;;26.64;36.30;99452.13;4481856;32;34502;-63
2023/07/31 09:51:44;;;;;;;5.22;1.70;;;;;;;26.68;36.08;99450.56;4481140;32;34111;-63
2023/07/31 09:54:16;;;;;;;6.32;1.95;;;;;;;26.66;35.79;99443.66;4481715;32;33632;-65
2023/07/31 09:56:48;;;;;;;4.20;1.77;;;;;;;26.67;35.39;99443.44;4467512;32;33858;-63
2023/07/31 09:59:18;;;;;;;5.07;1.70;;;;;;;26.68;35.45;99447.00;4478551;32;33798;-64
2023/07/31 10:01:50;;;;;;;5.60;1.62;;;;;;;26.68;35.49;99447.00;4475148;32;33616;-62
2023/07/31 10:04:20;;;;;;;5.85;1.77;;;;;;;26.70;35.28;99451.09;4468736;32;34697;-62
2023/07/31 10:06:48;;;;;;;;;;;;;;;26.69;35.18;99454.13;4467415;32;33853;-63
2023/07/31 10:09:15;;;;;;;3.45;1.55;;;;;;;26.82;34.92;99458.38;4479938;32;33402;-63
2023/07/31 10:11:50;;;;;;;5.25;1.80;;;;;;;26.75;34.93;99458.53;4467180;32;32992;-62
2023/07/31 10:14:21;;;;;;;4.32;1.95;;;;;;;26.74;34.84;99458.81;4468596;32;33480;-65
2023/07/31 10:17:07;;;;;;;6.47;1.80;;;;;;;26.70;34.94;99459.31;4474510;32;33696;-61
2023/07/31 10:19:35;;;;;;;5.30;2.03;;;;;;;26.75;35.19;99453.06;4478232;32;33974;-63
2023/07/31 10:22:03;;;;;;;4.60;1.87;;;;;;;26.72;35.71;99450.88;4484020;32;33856;-63
2023/07/31 10:24:31;;;;;;;2.67;1.80;;;;;;;26.74;35.99;99450.59;4483706;32;34683;-63
2023/07/31 10:26:58;;;;;;;5.03;2.05;;;;;;;26.74;36.10;99454.16;4483065;32;34084;-63
2023/07/31 10:29:26;;;;;;;5.37;1.85;;;;;;;26.75;36.42;99450.34;4482565;32;33844;-62
2023/07/31 10:31:53;;;;;;;5.93;1.73;;;;;;;26.76;36.69;99438.28;4483892;32;34040;-62
2023/07/31 10:34:21;;;;;;;3.90;1.62;;;;;;;26.78;36.78;99443.53;4469355;32;34679;-63
2023/07/31 10:36:49;;;;;;;8.63;1.92;;;;;;;26.79;36.85;99442.44;4469933;32;34671;-65
2023/07/31 10:39:36;;;;;;;5.25;1.55;;;;;;;26.81;36.89;99453.94;4483290;32;33042;-61
2023/07/31 10:42:13;;;;;;;4.65;1.52;;;;;;;26.84;36.43;99445.22;4481823;32;33350;-63
2023/07/31 10:44:45;;;;;;;4.57;1.90;;;;;;;26.84;35.91;99418.69;4483764;32;33962;-63
2023/07/31 10:47:15;;;;;;;5.03;1.67;;;;;;;26.88;35.69;99425.28;4473263;32;33866;-65
2023/07/31 10:49:44;;;;;;;;;;;;;;;26.86;35.70;99432.09;4475778;32;34662;-64
2023/07/31 10:52:13;;;;;;;3.92;1.58;;;;;;;26.95;35.47;99438.75;4473239;32;34294;-64
2023/07/31 10:54:40;;;;;;;3.35;1.58;;;;;;;26.89;36.03;99426.12;4467959;32;34413;-63
2023/07/31 10:57:21;;;;;;;4.45;1.77;;;;;;;26.86;36.44;99432.97;4477073;32;33591;-63
2023/07/31 10:59:50;;;;;;;6.07;1.75;;;;;;;26.88;36.22;99436.25;4482687;32;34525;-63
2023/07/31 11:02:30;;;;;;;5.30;1.85;;;;;;;26.87;35.60;99440.06;4478488;32;33421;-62
2023/07/31 11:05:10;;;;;;;4.47;1.60;;;;;;;26.86;35.31;99427.47;4483176;32;33655;-63
2023/07/31 11:07:48;;;;;;;;;;;;;;;26.88;34.99;99424.47;4473081;32;34663;-64
2023/07/31 11:10:17;;;;;;;3.53;1.33;;;;;;;26.98;35.44;99431.97;4476051;32;34245;-63
2023/07/31 11:12:46;;;;;;;4.20;1.73;;;;;;;26.90;35.85;99423.13;4484958;32;32734;-63
2023/07/31 11:15:13;;;;;;;6.30;1.98;;;;;;;26.91;35.39;99434.91;4485441;32;34674;-63
2023/07/31 11:17:41;;;;;;;4.18;1.83;;;;;;;26.90;35.23;99419.56;4484807;32;33868;-64
2023/07/31 11:20:09;;;;;;;5.95;1.67;;;;;;;26.89;35.69;99421.47;4485471;32;33835;-63
2023/07/31 11:22:37;;;;;;;4.70;1.83;;;;;;;26.88;36.05;99419.81;4484888;32;34176;-63
2023/07/31 11:25:05;;;;;;;5.82;2.08;;;;;;;26.90;36.29;99411.34;4483832;32;33684;-62
2023/07/31 11:27:39;;;;;;;5.82;1.85;;;;;;;26.93;35.81;99400.69;4476761;32;33921;-66
2023/07/31 11:30:07;;;;;;;4.78;1.80;;;;;;;26.93;35.91;99408.91;4473996;32;33573;-65
2023/07/31 11:32:37;;;;;;;5.43;1.83;;;;;;;26.92;36.67;99412.75;4483769;32;33422;-61
2023/07/31 11:35:08;;;;;;;5.03;1.75;;;;;;;26.92;37.12;99410.00;4475325;32;33916;-64
2023/07/31 11:37:40;;;;;;;7.78;1.83;;;;;;;26.93;37.30;99414.41;4468167;32;34809;-63
2023/07/31 11:40:08;;;;;;;4.60;1.52;;;;;;;26.93;37.48;99411.66;4482691;31;33670;-62
2023/07/31 11:42:36;;;;;;;9.70;2.00;;;;;;;26.93;37.69;99410.84;4485361;32;33396;-62